KHOU/HOU METAR and TAF weather

Enter ICAO airport designator
Station Type Date Time Source
KHOU METAR 2019/07/18 10:53 UTC NOAA

KHOU 181053Z 16005KT 10SM FEW015 27/24 A3003 RMK AO2 SLP172 T02670239


Station Type Date Time Source
KHOU Decoded METAR 2019/07/18 10:53 UTC NOAA

HOUSTON HOBBY AIRPORT, TX, United States (KHOU) 29-38N 095-17W 36M
Jul 18, 2019 - 06:53 AM EDT / 2019.07.18 1053 UTC
Wind: from the SSE (160 degrees) at 6 MPH (5 KT):0
Visibility: 10 mile(s):0
Sky conditions: mostly clear
Temperature: 80.1 F (26.7 C)
Dew Point: 75.0 F (23.9 C)
Relative Humidity: 84%
Pressure (altimeter): 30.03 in. Hg (1016 hPa)
ob: KHOU 181053Z 16005KT 10SM FEW015 27/24 A3003 RMK AO2 SLP172 T02670239
cycle: 11

Station Type Date Time Source
KHOU TAF 2019/07/18 12:22 UTC NOAA

TAF KHOU 181120Z 1812/1912 17006KT P6SM SCT020
FM181500 17009KT P6SM SCT030
FM181800 17012G20KT P6SM SCT040
FM190100 17009KT P6SM FEW035
FM190900 18004KT P6SM SCT020

Example: see airport list